Pagrindinis puslapis
METAR-TAF:

METAR-TAF

Oro uostai :

Mandalajus, Mianmaras

platuma: 21-59N, ilguma: 096-06E, Aukštis: 74 m

Dabartinis oras

Ataskaita buvo paskelbta 1 valandą ir 58 minutes, ne 18:30 UTC
Vėjas 6 kt iš Vakarų/Šiaurės Vakarų
Temperatūra 16°C
Drėgmė 77%
Slėgis 1013 hPa
Matomumas: 6000 m

METAR: VYMD 171830Z 29006KT 6000 NSC 16/12 Q1013 NOSIG

Laikas: 02:58 (20:28 UTC)

Prognozė

Ataskaita buvo paskelbta 3 valandos ir 28 minutes, ne 17:00 UTC
Prognozė galioja nuo 17 metu 18 UTC su 18 metu 18 UTC
Vėjas 3 kt iš Pietryčių
Matomumas: 7000 m
Mažai debesys ne aukštis 2500 ft
Laikinai
nuo 17 metu 18 UTC su 17 metu 24 UTC
Vėjas 7 kt iš Šiaurės Vakarų
Matomumas: 6000 m
Išsisklaidę debesys ne aukštis 2500 ft

TAF: VYMD 171700Z 1718/1818 13003KT 7000 FEW025 TEMPO 1718/1724 32007KT 6000 SCT025

Orai ataskaitas ir orų prognozės (METAR, TAF).

turimą stotys yra geltonos ir raudonos taškus žemėlapyje.

Perkelti pele per norėdami pamatyti stoties vardą.

Tada spustelėkite, norėdami matyti oro stebėjimo ir prognozės.

Norėdami pakeisti žemėlapį: spustelėkite ant žalios mygtukų su juodo kryžiaus žemyn,; žalią mygtuką su brūkšneliu, jei norite nutolinti; arba žalių rodyklių gretimoms žemėlapius.


METAR-TAF: